YTA weather

Pembroke Airport
Pembroke, Ontario, Canada

Public forecast

Using degrees Celsius for public forecast. Weather courtesy of forecast.io.

Closest aviation weather report (METAR) to Pembroke Airport

Closest report is Petawawa Airport, 6.0 nm (11.1 km) NNW. Retrieved 2020/03/28 23:00 UTC (58 minutes ago):

CYWA 282300Z AUTO 14002KT 9SM OVC098 06/M08 A3005 RMK SLP183

Closest aviation forecast (TAF) to Pembroke Airport

Closest forecast is Petawawa Airport, 6.0 nm (11.1 km) NNW. Retrieved 2020/03/28 18:33 UTC (5 hours ago):

TAF CYWA 281730Z 2818/2906 12005KT P6SM BKN200 FM290200 10005KT P6SM BKN080 OVC200 RMK FCST BASED ON AUTO OBS NXT FCST BY 290000Z